KBPI/BPI METAR and TAF weather

Enter ICAO airport designator
Station Type Date Time Source
KBPI METAR 2022/06/27 17:53 UTC NOAA

KBPI 271753Z AUTO VRB04KT 10SM CLR 23/M01 A3043 RMK AO2 SLP213 T02331006 10239 20044 58008


Station Type Date Time Source
KBPI Decoded METAR 2022/06/27 17:53 UTC NOAA

BIG PINEY-MARBLETON AIRPORT, WY, United States (KBPI) 42-35N 110-06W 2117M
Jun 27, 2022 - 01:53 PM EDT / 2022.06.27 1753 UTC
Wind: Variable at 5 MPH (4 KT):0
Visibility: 10 mile(s):0
Sky conditions: clear
Temperature: 73.9 F (23.3 C)
Dew Point: 30.9 F (-0.6 C)
Relative Humidity: 20%
Pressure (altimeter): 30.43 in. Hg (1030 hPa)
Pressure tendency: 0.02 inches (0.8 hPa) lower than three hours ago
ob: KBPI 271753Z AUTO VRB04KT 10SM CLR 23/M01 A3043 RMK AO2 SLP213 T02331006 10239 20044 58008
cycle: 18

Station Type Date Time Source
KBPI TAF 2022/06/27 18:36 UTC NOAA

TAF KBPI 271735Z 2718/2818 VRB06KT P6SM SKC
FM272000 30012G18KT P6SM SCT110
FM280100 34008KT P6SM SCT110
FM280800 VRB04KT P6SM FEW120

Example: see airport list